Historyczne dane pomiarowe

Dodano dane terminowe – wersja testowa.

Dane z okresu 1951-2019

Wersja bazy: 1.34 [2019-03-16, lista zmian], aktualizacja planowana na 2019-04-15

Dane meteo z obszaru Polski uzyskane na podstawie danych udostępnionych przez Instytut Meteorologii i Gospodarki Wodnej – Państwowy Instytut Badawczy.

 

Wybierz Datę:    

       

TemperaturaWilgotnośćWiatrCiśnienieOpadyŚniegCzas trwania zjawisk
 Stacja t tx tn tng RH VA  wxwx mslp ppp RRR   cm mm wxwxwxwxwxwxwx
1999-08-14 15.3 19.7 11.0--- 3.3 2.0---- 0.0------------
1999-08-13 16.1 21.1 10.8--- 5.7 1.3---- 0.0------------
1999-08-12 16.9 20.9 14.8--- 6.3 1.3---- 0.2------------
1999-08-11 20.8 25.2 17.5--- 6.0 3.0---- 5.1------------
1999-08-10 21.9 30.3 16.3--- 5.0 1.7---- 20.0------------
1999-08-09 24.4 31.7 17.8--- 3.0 1.3---- 27.6------------
1999-08-08 23.4 28.6 20.1--- 7.3 2.7---- 0.0------------
1999-08-07 21.9 29.1 15.0--- 1.7 2.3---- 0.0------------
1999-08-06 20.3 25.9 15.7--- 6.7 3.3---- 1.5------------
1999-08-05 18.4 26.1 10.7--- 2.0 1.7---- 0.0------------
1999-08-04 17.7 24.4 11.7--- 3.3 1.3---- 0.0------------
1999-08-03 16.2 21.7 11.4--- 6.7 1.0---- 0.0------------
1999-08-02 15.4 19.2 12.5--- 7.7 1.0---- 2.3------------
1999-08-01 18.0 24.5 12.9--- 6.0 3.0---- 0.0------------
1999-07-31 17.7 25.6 11.0--- 4.0 2.0---- 2.8------------
1999-07-30 17.7 24.9 10.0--- 3.0 2.7---- 0.0------------
1999-07-29 17.3 24.1 11.3--- 4.0 2.3---- 0.0------------
1999-07-28 17.6 21.9 14.6--- 6.3 2.0---- 0.3------------
1999-07-27 19.7 24.0 15.4--- 7.7 2.7---- 15.5------------
1999-07-26 21.0 28.1 14.0--- 6.3 1.3---- 0.0------------
1999-07-25 19.3 24.9 12.5--- 2.3 2.0---- 0.0------------
1999-07-24 16.9 21.7 12.5--- 6.7 2.0---- 0.0------------
1999-07-23 16.2 20.5 13.9--- 7.3 2.3---- 19.0------------
1999-07-22 21.4 25.7 18.5--- 5.7 2.3---- 4.0------------
1999-07-21 23.4 30.2 16.1--- 4.0 3.0---- 0.0------------
1999-07-20 22.2 29.6 14.8--- 1.0 2.3---- 0.0------------
1999-07-19 19.1 27.6 11.2--- 3.0 2.0---- 0.0------------
1999-07-18 18.3 25.2 10.5--- 0.7 2.0---- 0.0------------
1999-07-17 17.0 23.7 9.8--- 3.7 2.0---- 0.0------------
1999-07-16 16.3 22.1 11.8--- 3.7 1.7---- 0.0------------
1999-07-15 18.4 22.2 15.2--- 5.7 3.0---- 2.3------------
1999-07-14 22.2 25.9 19.5--- 6.0 3.7---- 7.9------------
1999-07-13 20.8 25.9 15.7--- 4.0 3.3---- 0.9------------
1999-07-12 21.3 28.1 16.0--- 5.0 4.3---- 0.0------------
1999-07-11 21.1 25.1 16.4--- 5.7 4.0---- 0.0------------
1999-07-10 20.6 24.6 17.9--- 7.3 3.7---- 0.0------------
1999-07-09 21.9 25.4 18.1--- 7.3 3.3---- 0.0------------
1999-07-08 22.1 26.4 18.5--- 6.3 2.3---- 0.7------------
1999-07-07 23.4 27.2 20.8--- 6.3 2.3---- 4.1------------
1999-07-06 25.4 30.5 19.3--- 0.3 6.0---- 0.0------------
1999-07-05 23.5 30.4 16.7--- 0.0 3.0---- 0.0------------
1999-07-04 22.2 29.6 13.5--- 0.0 2.3---- 0.0------------
1999-07-03 19.5 25.5 15.2--- 4.3 2.3---- 0.0------------
1999-07-02 20.8 25.9 15.1--- 4.7 2.3---- 0.0------------
1999-07-01 19.9 24.9 12.5--- 3.0 1.3---- 0.0------------
1999-06-30 19.6 25.4 13.0--- 2.3 1.3---- 0.0------------
1999-06-29 19.7 24.2 15.4--- 4.3 2.3---- 0.0------------
1999-06-28 20.1 27.3 11.3--- 2.7 2.3---- 0.0------------
1999-06-27 19.3 26.5 6.7--- 0.0 3.0---- 0.0------------
1999-06-26 16.5 23.4 6.5--- 0.3 3.3---- 0.0------------
1999-06-25 14.6 19.1 10.0--- 4.7 2.7---- 0.0------------
1999-06-24 10.9 11.8 10.0--- 8.0 2.3---- 13.4------------
1999-06-23 10.0 11.5 8.4--- 8.0 4.3---- 15.0------------
1999-06-22 13.5 17.1 10.7--- 8.0 2.0---- 29.6------------
1999-06-21 18.6 23.9 15.4--- 5.7 1.3---- 21.0------------
1999-06-20 18.7 22.6 15.8--- 7.0 2.7---- 0.0------------
1999-06-19 17.8 22.7 14.4--- 6.0 3.3---- 0.4------------
1999-06-18 18.5 23.9 15.5--- 7.3 2.3---- 13.1------------
1999-06-17 19.4 24.6 16.0--- 7.0 2.3---- 11.1------------
1999-06-16 19.2 23.3 15.9--- 7.3 1.0---- 0.0------------
324.3 ms

 

Źródłem pochodzenia danych jest Instytut Meteorologii i Gospodarki Wodnej – Państwowy Instytut Badawczy. Dane Instytutu Meteorologii i Gospodarki Wodnej – Państwowego Instytutu Badawczego zostały przetworzone.

Dane źródłowe można odnaleźć na stronie https://dane.imgw.pl